createdAt,value
2022-08-03T00:01:52.617Z,100.00
2022-08-03T00:04:19.370Z,100.00
2022-08-03T00:06:46.154Z,100.00
2022-08-03T00:09:12.941Z,100.00
2022-08-03T00:11:39.691Z,100.00
2022-08-03T00:14:07.497Z,100.00
2022-08-03T00:16:34.357Z,100.00
2022-08-03T00:19:01.624Z,100.00
2022-08-03T00:21:28.858Z,100.00
2022-08-03T00:23:56.130Z,100.00
2022-08-03T00:26:22.968Z,100.00
2022-08-03T00:28:50.532Z,100.00
2022-08-03T00:31:32.225Z,100.00
2022-08-03T00:34:04.534Z,100.00
2022-08-03T00:36:32.945Z,100.00
2022-08-03T00:38:59.748Z,100.00
2022-08-03T00:41:26.909Z,100.00
2022-08-03T00:43:53.874Z,100.00
2022-08-03T00:46:22.119Z,100.00
2022-08-03T00:48:52.808Z,100.00
2022-08-03T00:51:23.543Z,100.00
2022-08-03T00:53:50.692Z,100.00
2022-08-03T00:56:18.362Z,100.00
2022-08-03T00:58:46.273Z,100.00
2022-08-03T01:01:13.778Z,100.00
2022-08-03T01:03:40.863Z,100.00
2022-08-03T01:06:33.546Z,100.00
2022-08-03T01:09:15.930Z,100.00
2022-08-03T01:12:28.234Z,100.00
2022-08-03T01:15:19.293Z,100.00
2022-08-03T01:17:55.901Z,100.00
2022-08-03T01:20:24.646Z,100.00
2022-08-03T01:22:54.209Z,100.00
2022-08-03T01:25:38.535Z,100.00
2022-08-03T01:28:17.419Z,100.00
2022-08-03T01:30:46.739Z,100.00
2022-08-03T01:33:27.831Z,100.00
2022-08-03T01:36:00.231Z,100.00
2022-08-03T01:38:32.734Z,100.00
2022-08-03T01:41:07.028Z,100.00
2022-08-03T01:43:55.238Z,100.00
2022-08-03T01:46:25.404Z,100.00
2022-08-03T01:48:54.080Z,100.00
2022-08-03T01:51:22.113Z,100.00
2022-08-03T01:53:51.717Z,100.00
2022-08-03T01:56:21.818Z,100.00
2022-08-03T01:58:50.270Z,100.00
2022-08-03T02:01:18.674Z,100.00
2022-08-03T02:04:00.454Z,100.00
2022-08-03T02:07:02.571Z,100.00
2022-08-03T02:09:20.809Z,100.00
2022-08-03T02:11:48.919Z,100.00
2022-08-03T02:14:17.941Z,100.00
2022-08-03T02:16:45.585Z,100.00
2022-08-03T02:19:14.107Z,100.00
2022-08-03T02:21:56.448Z,100.00
2022-08-03T02:24:29.500Z,100.00
2022-08-03T02:26:57.683Z,100.00
2022-08-03T02:29:39.629Z,100.00
2022-08-03T02:32:16.874Z,100.00
2022-08-03T02:34:48.671Z,100.00
2022-08-03T02:37:18.656Z,100.00
2022-08-03T02:39:47.478Z,100.00
2022-08-03T02:42:18.469Z,100.00
2022-08-03T02:44:50.144Z,100.00
2022-08-03T02:47:20.847Z,100.00
2022-08-03T02:49:52.163Z,100.00
2022-08-03T02:52:22.670Z,100.00
2022-08-03T02:54:52.873Z,100.00
2022-08-03T02:57:21.297Z,100.00
2022-08-03T02:59:49.172Z,100.00
2022-08-03T03:02:17.909Z,100.00
2022-08-03T03:04:58.878Z,100.00
2022-08-03T03:07:34.660Z,100.00
2022-08-03T03:10:22.422Z,100.00
2022-08-03T03:12:55.625Z,100.00
2022-08-03T03:15:24.178Z,100.00
2022-08-03T03:17:53.102Z,100.00
2022-08-03T03:20:29.034Z,100.00
2022-08-03T03:23:01.736Z,100.00
2022-08-03T03:25:32.459Z,100.00
2022-08-03T03:28:00.118Z,100.00
2022-08-03T03:30:27.684Z,100.00
2022-08-03T03:32:55.407Z,100.00
2022-08-03T03:35:23.654Z,100.00
2022-08-03T03:37:57.023Z,100.00
2022-08-03T03:40:24.736Z,100.00
2022-08-03T03:42:53.002Z,100.00
2022-08-03T03:45:47.547Z,100.00
2022-08-03T03:48:15.740Z,100.00
2022-08-03T03:50:44.048Z,100.00
2022-08-03T03:53:13.275Z,100.00
2022-08-03T03:55:59.732Z,100.00
2022-08-03T03:58:32.356Z,100.00
2022-08-03T04:01:00.653Z,100.00
2022-08-03T04:03:27.791Z,100.00
2022-08-03T04:06:13.472Z,100.00
2022-08-03T04:08:59.191Z,100.00
2022-08-03T04:11:31.822Z,100.00
2022-08-03T04:14:14.443Z,100.00
2022-08-03T04:16:45.811Z,100.00
2022-08-03T04:19:51.022Z,100.00
2022-08-03T04:22:22.075Z,100.00
2022-08-03T04:25:08.833Z,100.00
2022-08-03T04:27:41.055Z,100.00
2022-08-03T04:30:09.007Z,100.00
2022-08-03T04:32:39.992Z,100.00
2022-08-03T04:35:10.044Z,100.00
2022-08-03T04:37:43.546Z,100.00
2022-08-03T04:40:15.559Z,100.00
2022-08-03T04:42:43.401Z,100.00
2022-08-03T04:45:15.255Z,100.00
2022-08-03T04:47:44.146Z,100.00
2022-08-03T04:50:13.518Z,100.00
2022-08-03T04:52:42.523Z,100.00
2022-08-03T04:55:09.578Z,100.00
2022-08-03T04:57:36.381Z,100.00
2022-08-03T05:00:05.212Z,100.00
2022-08-03T05:02:32.141Z,100.00
2022-08-03T05:04:59.645Z,100.00
2022-08-03T05:07:26.635Z,100.00
2022-08-03T05:10:14.712Z,100.00
2022-08-03T05:12:46.223Z,100.00
2022-08-03T05:15:13.907Z,100.00
2022-08-03T05:17:40.942Z,100.00
2022-08-03T05:20:08.345Z,100.00
2022-08-03T05:22:35.140Z,100.00
2022-08-03T05:25:02.437Z,100.00
2022-08-03T05:27:29.268Z,100.00
2022-08-03T05:29:56.052Z,100.00
2022-08-03T05:32:42.811Z,100.00
2022-08-03T05:36:02.141Z,100.00
2022-08-03T05:37:56.441Z,100.00
2022-08-03T05:40:23.315Z,100.00
2022-08-03T05:42:50.148Z,100.00
2022-08-03T05:45:19.803Z,100.00
2022-08-03T05:47:47.457Z,100.00
2022-08-03T05:50:14.359Z,100.00
2022-08-03T05:52:43.192Z,100.00
2022-08-03T05:55:13.355Z,100.00
2022-08-03T05:57:40.810Z,100.00
2022-08-03T06:00:11.671Z,100.00
2022-08-03T06:03:00.689Z,100.00
2022-08-03T06:05:29.182Z,100.00
2022-08-03T06:07:56.095Z,100.00
2022-08-03T06:10:35.712Z,100.00
2022-08-03T06:13:04.991Z,100.00
2022-08-03T06:15:32.963Z,100.00
2022-08-03T06:18:02.199Z,100.00
2022-08-03T06:20:29.789Z,100.00
2022-08-03T06:23:00.320Z,100.00
2022-08-03T06:25:28.407Z,100.00
2022-08-03T06:28:00.093Z,100.00
2022-08-03T06:30:28.824Z,100.00
2022-08-03T06:32:56.194Z,100.00
2022-08-03T06:35:23.062Z,100.00
2022-08-03T06:37:51.737Z,100.00
2022-08-03T06:40:24.648Z,100.00
2022-08-03T06:42:51.572Z,100.00
2022-08-03T06:45:18.401Z,100.00
2022-08-03T06:47:45.325Z,100.00
2022-08-03T06:50:17.413Z,100.00
2022-08-03T06:52:45.351Z,100.00
2022-08-03T06:55:12.255Z,100.00
2022-08-03T06:57:38.941Z,100.00
2022-08-03T07:00:11.850Z,100.00
2022-08-03T07:02:39.405Z,100.00
2022-08-03T07:05:08.244Z,100.00
2022-08-03T07:07:35.044Z,100.00
2022-08-03T07:10:02.207Z,100.00
2022-08-03T07:12:30.531Z,100.00
2022-08-03T07:15:02.254Z,100.00
2022-08-03T07:17:31.406Z,99.75
2022-08-03T07:19:59.530Z,99.66
2022-08-03T07:22:26.307Z,100.00
2022-08-03T07:24:53.426Z,98.23
2022-08-03T07:46:45.968Z,90.04
2022-08-03T07:49:14.249Z,87.87
2022-08-03T07:51:42.484Z,86.47
2022-08-03T07:54:10.706Z,85.81
2022-08-03T07:56:38.919Z,83.48
2022-08-03T07:59:07.101Z,82.13
2022-08-03T08:01:38.164Z,81.92
2022-08-03T08:04:06.550Z,80.67
2022-08-03T08:06:34.884Z,77.73
2022-08-03T08:09:03.015Z,77.63
2022-08-03T08:11:31.130Z,73.84
2022-08-03T08:14:02.788Z,73.34
2022-08-03T08:16:31.440Z,69.74
2022-08-03T08:18:59.542Z,69.20
2022-08-03T08:21:27.905Z,68.13
2022-08-03T08:24:18.058Z,64.43
2022-08-03T08:26:48.710Z,63.40
2022-08-03T08:29:16.943Z,62.61
2022-08-03T08:31:45.045Z,62.12
2022-08-03T08:34:14.157Z,58.16
2022-08-03T08:36:42.741Z,60.49
2022-08-03T08:39:11.025Z,59.33
2022-08-03T08:41:39.327Z,60.45
2022-08-03T08:44:14.508Z,62.70
2022-08-03T08:46:43.259Z,58.91
2022-08-03T08:49:17.466Z,55.89
2022-08-03T08:51:59.770Z,57.02
2022-08-03T08:54:32.765Z,56.91
2022-08-03T08:57:09.102Z,54.77
2022-08-03T08:59:47.827Z,56.81
2022-08-03T09:02:17.681Z,57.43
2022-08-03T09:04:48.926Z,60.07
2022-08-03T09:07:20.344Z,59.62
2022-08-03T09:10:11.027Z,55.41
2022-08-03T09:12:43.753Z,54.27
2022-08-03T09:15:21.980Z,53.13
2022-08-03T09:17:52.188Z,52.64
2022-08-03T09:20:21.906Z,51.95
2022-08-03T09:22:56.574Z,51.02
2022-08-03T09:25:43.377Z,51.09
2022-08-03T09:28:53.956Z,49.80
2022-08-03T09:31:08.351Z,48.12
2022-08-03T09:33:48.077Z,47.02
2022-08-03T09:36:36.370Z,46.62
2022-08-03T09:39:06.902Z,47.82
2022-08-03T09:41:35.014Z,48.76
2022-08-03T09:44:03.187Z,48.49
2022-08-03T09:46:32.848Z,46.82
2022-08-03T09:49:12.151Z,47.70
2022-08-03T09:52:32.387Z,46.80
2022-08-03T09:54:30.812Z,45.94
2022-08-03T09:56:59.585Z,45.24
2022-08-03T09:59:30.365Z,45.84
2022-08-03T10:02:02.597Z,45.66
2022-08-03T10:04:30.782Z,45.78
2022-08-03T10:07:10.743Z,45.84
2022-08-03T10:09:38.870Z,47.96
2022-08-03T10:12:12.492Z,47.77
2022-08-03T10:14:42.426Z,47.67
2022-08-03T10:17:10.538Z,46.57
2022-08-03T10:19:38.952Z,44.71
2022-08-03T10:22:21.979Z,43.16
2022-08-03T10:24:56.408Z,42.28
2022-08-03T10:27:25.528Z,42.11
2022-08-03T10:29:56.490Z,43.47
2022-08-03T10:32:52.350Z,43.31
2022-08-03T10:35:23.694Z,43.02
2022-08-03T10:38:03.578Z,42.52
2022-08-03T10:40:48.025Z,43.65
2022-08-03T10:43:40.834Z,43.72
2022-08-03T10:46:08.987Z,44.05
2022-08-03T10:48:38.317Z,44.80
2022-08-03T10:51:07.714Z,43.99
2022-08-03T10:53:44.028Z,43.91
2022-08-03T10:57:03.388Z,42.84
2022-08-03T10:59:48.677Z,43.24
2022-08-03T11:02:18.145Z,42.39
2022-08-03T11:04:46.309Z,43.17
2022-08-03T11:07:25.131Z,44.70
2022-08-03T11:09:55.249Z,45.85
2022-08-03T11:12:32.293Z,46.01
2022-08-03T11:15:05.126Z,45.83
2022-08-03T11:17:46.238Z,45.89
2022-08-03T11:20:44.290Z,43.75
2022-08-03T11:23:13.133Z,42.94
2022-08-03T11:26:15.129Z,42.24
2022-08-03T11:28:46.201Z,42.59
2022-08-03T11:31:47.251Z,43.63
2022-08-03T11:34:13.737Z,45.09
2022-08-03T11:37:21.933Z,45.96
2022-08-03T11:39:53.256Z,48.35
2022-08-03T11:42:24.477Z,48.74
2022-08-03T11:45:00.556Z,49.99
2022-08-03T11:47:30.168Z,51.51
2022-08-03T11:50:02.195Z,52.79
2022-08-03T11:52:40.568Z,51.76
2022-08-03T11:55:10.426Z,52.55
2022-08-03T11:59:12.805Z,53.39
2022-08-03T12:00:30.938Z,53.21
2022-08-03T12:03:14.307Z,53.86
2022-08-03T12:05:52.321Z,54.41
2022-08-03T12:08:26.629Z,54.66
2022-08-03T12:10:56.862Z,53.18
2022-08-03T12:14:45.352Z,51.46
2022-08-03T12:16:19.832Z,48.92
2022-08-03T12:19:02.751Z,45.86
2022-08-03T12:21:31.184Z,43.46
2022-08-03T12:24:01.497Z,44.16
2022-08-03T12:26:42.429Z,45.29
2022-08-03T12:29:26.444Z,46.79
2022-08-03T12:31:56.004Z,47.86
2022-08-03T12:34:24.503Z,49.55
2022-08-03T12:36:56.534Z,51.01
2022-08-03T12:39:27.584Z,52.02
2022-08-03T12:41:56.986Z,53.76
2022-08-03T12:44:35.356Z,56.65
2022-08-03T12:47:06.866Z,59.07
2022-08-03T12:49:49.474Z,62.05
2022-08-03T12:52:19.183Z,65.66
2022-08-03T12:55:01.497Z,66.79
2022-08-03T12:57:42.697Z,66.27
2022-08-03T13:00:21.376Z,68.42
2022-08-03T13:03:38.914Z,67.18
2022-08-03T13:05:50.593Z,62.85
2022-08-03T13:08:24.144Z,63.65
2022-08-03T13:10:52.271Z,64.35
2022-08-03T13:13:39.675Z,65.39
2022-08-03T13:16:07.756Z,66.13
2022-08-03T13:18:35.899Z,66.92
2022-08-03T13:21:04.251Z,67.04
2022-08-03T13:23:32.654Z,67.12
2022-08-03T13:26:00.727Z,64.58
2022-08-03T13:28:28.874Z,59.52
2022-08-03T13:30:57.279Z,55.98
2022-08-03T13:33:27.908Z,55.14
2022-08-03T13:35:56.270Z,55.04
2022-08-03T13:38:27.243Z,54.49
2022-08-03T13:40:56.782Z,52.85
2022-08-03T13:43:24.926Z,50.21
2022-08-03T13:45:57.698Z,49.42
2022-08-03T13:48:36.776Z,48.99
2022-08-03T13:51:21.839Z,49.11
2022-08-03T13:53:52.489Z,49.84
2022-08-03T13:56:20.558Z,50.08
2022-08-03T13:58:48.660Z,50.39
2022-08-03T14:01:16.883Z,50.30
2022-08-03T14:03:46.573Z,49.53
2022-08-03T14:06:15.265Z,49.61
2022-08-03T14:08:43.541Z,49.92
2022-08-03T14:11:11.944Z,49.43
2022-08-03T14:13:40.147Z,48.43
2022-08-03T14:16:09.872Z,47.36
2022-08-03T14:18:40.101Z,46.30
2022-08-03T14:21:09.950Z,47.39
2022-08-03T14:23:38.511Z,48.64
2022-08-03T14:26:08.044Z,49.22
2022-08-03T14:28:36.549Z,50.39
2022-08-03T14:31:04.789Z,50.23
2022-08-03T14:33:36.758Z,50.03
2022-08-03T14:36:05.309Z,49.96
2022-08-03T14:38:33.503Z,50.25
2022-08-03T14:41:01.875Z,50.93
2022-08-03T14:43:34.086Z,51.21
2022-08-03T14:46:02.562Z,50.99
2022-08-03T14:50:10.340Z,50.18
2022-08-03T14:51:19.475Z,49.53
2022-08-03T14:53:47.605Z,49.18
2022-08-03T14:56:15.942Z,48.89
2022-08-03T14:58:44.005Z,48.70
2022-08-03T15:02:02.255Z,49.09
2022-08-03T15:04:00.381Z,48.90
2022-08-03T15:06:28.524Z,48.97
2022-08-03T15:09:13.773Z,49.50
2022-08-03T15:11:44.861Z,49.13
2022-08-03T15:14:13.328Z,50.16
2022-08-03T15:16:43.087Z,50.65
2022-08-03T15:20:03.191Z,51.16
2022-08-03T15:22:00.944Z,51.52
2022-08-03T15:24:29.776Z,51.43
2022-08-03T15:26:58.057Z,52.27
2022-08-03T15:30:05.377Z,53.84
2022-08-03T15:32:14.707Z,55.59
2022-08-03T15:34:50.492Z,57.24
2022-08-03T15:37:20.199Z,58.10
2022-08-03T15:39:59.028Z,57.47
2022-08-03T15:42:33.637Z,58.61
2022-08-03T15:45:01.858Z,59.94
2022-08-03T15:47:30.061Z,60.52
2022-08-03T15:49:58.193Z,60.17
2022-08-03T15:52:26.398Z,59.81
2022-08-03T15:54:54.522Z,59.59
2022-08-03T15:57:23.130Z,60.34
2022-08-03T15:59:52.095Z,60.64
2022-08-03T16:02:20.381Z,60.25
2022-08-03T16:04:49.053Z,60.21
2022-08-03T16:07:37.147Z,60.49
2022-08-03T16:10:05.747Z,60.40
2022-08-03T16:12:33.962Z,60.85
2022-08-03T16:15:02.454Z,60.97
2022-08-03T16:17:31.238Z,61.53
2022-08-03T16:19:59.611Z,61.88
2022-08-03T16:22:28.703Z,62.58
2022-08-03T16:24:58.556Z,63.02
2022-08-03T16:27:55.787Z,63.96
2022-08-03T16:30:19.730Z,64.76
2022-08-03T16:32:48.534Z,65.01
2022-08-03T16:35:19.804Z,65.54
2022-08-03T16:37:56.533Z,66.29
2022-08-03T16:40:25.587Z,66.93
2022-08-03T16:42:53.881Z,66.91
2022-08-03T16:45:22.504Z,67.17
2022-08-03T16:48:05.758Z,68.06
2022-08-03T16:50:36.060Z,68.53
2022-08-03T16:53:09.829Z,69.02
2022-08-03T16:55:48.780Z,69.02
2022-08-03T16:58:41.285Z,69.56
2022-08-03T17:01:24.138Z,70.41
2022-08-03T17:04:02.025Z,70.68
2022-08-03T17:06:36.293Z,71.24
2022-08-03T17:09:10.182Z,72.27
2022-08-03T17:11:46.533Z,73.16
2022-08-03T17:14:22.675Z,73.81
2022-08-03T17:16:54.302Z,75.35
2022-08-03T17:19:25.013Z,75.97
2022-08-03T17:22:04.302Z,76.43
2022-08-03T17:24:42.091Z,77.46
2022-08-03T17:28:41.619Z,77.34
2022-08-03T17:30:07.713Z,78.57
2022-08-03T17:32:42.621Z,79.38
2022-08-03T17:35:11.442Z,79.36
2022-08-03T17:37:57.405Z,79.89
2022-08-03T17:40:27.388Z,81.09
2022-08-03T17:43:01.006Z,81.69
2022-08-03T17:45:51.906Z,82.26
2022-08-03T17:48:18.462Z,83.39
2022-08-03T17:50:51.360Z,83.88
2022-08-03T17:53:25.008Z,83.87
2022-08-03T17:56:44.941Z,85.53
2022-08-03T17:59:16.033Z,86.30
2022-08-03T18:02:29.591Z,86.70
2022-08-03T18:05:16.329Z,87.77
2022-08-03T18:07:59.494Z,89.51
2022-08-03T18:10:35.802Z,89.16
2022-08-03T18:13:10.976Z,88.68
2022-08-03T18:15:47.962Z,90.82
2022-08-03T18:21:09.344Z,91.04
2022-08-03T18:23:50.327Z,93.32
2022-08-03T18:26:22.090Z,93.60
2022-08-03T18:28:54.880Z,94.22
2022-08-03T18:31:59.593Z,94.76
2022-08-03T18:34:32.419Z,94.51
2022-08-03T18:37:08.027Z,95.69
2022-08-03T18:39:49.718Z,96.39
2022-08-03T18:42:19.848Z,98.39
2022-08-03T18:44:54.343Z,98.91
2022-08-03T18:47:50.559Z,100.00
2022-08-03T18:50:41.214Z,100.00
2022-08-03T18:54:02.183Z,100.00
2022-08-03T18:56:45.250Z,100.00
2022-08-03T18:59:30.339Z,100.00
2022-08-03T19:02:09.332Z,100.00
2022-08-03T19:04:47.508Z,100.00
2022-08-03T19:07:23.327Z,100.00
2022-08-03T19:09:58.895Z,100.00
2022-08-03T19:12:39.482Z,100.00
2022-08-03T19:15:41.359Z,100.00
2022-08-03T19:18:18.005Z,100.00
2022-08-03T19:20:56.192Z,100.00
2022-08-03T19:23:25.985Z,100.00
2022-08-03T19:26:02.415Z,100.00
2022-08-03T19:28:33.366Z,100.00
2022-08-03T19:31:02.577Z,100.00
2022-08-03T19:33:55.883Z,100.00
2022-08-03T19:36:28.283Z,100.00
2022-08-03T19:38:57.643Z,100.00
2022-08-03T19:41:42.215Z,100.00
2022-08-03T19:44:20.278Z,100.00
2022-08-03T19:46:57.967Z,100.00
2022-08-03T19:50:02.839Z,100.00
2022-08-03T19:52:24.349Z,100.00
2022-08-03T19:57:57.087Z,100.00
2022-08-03T20:00:30.566Z,100.00
2022-08-03T20:03:02.787Z,100.00
2022-08-03T20:05:45.039Z,100.00
2022-08-03T20:08:20.724Z,100.00
2022-08-03T20:10:50.014Z,100.00
2022-08-03T20:13:20.526Z,100.00
2022-08-03T20:15:49.111Z,100.00
2022-08-03T20:18:22.193Z,100.00
2022-08-03T20:20:52.679Z,100.00
2022-08-03T20:23:22.817Z,100.00
2022-08-03T20:28:51.933Z,100.00
2022-08-03T20:31:25.167Z,100.00
2022-08-03T20:34:00.954Z,100.00
2022-08-03T20:36:29.248Z,100.00
2022-08-03T20:38:59.654Z,100.00
2022-08-03T20:41:28.132Z,100.00
2022-08-03T20:44:01.012Z,100.00
2022-08-03T20:46:40.636Z,100.00
2022-08-03T20:49:22.921Z,100.00
2022-08-03T20:51:53.232Z,100.00
2022-08-03T20:54:30.951Z,100.00
2022-08-03T20:57:04.217Z,100.00
2022-08-03T20:59:50.598Z,100.00
2022-08-03T21:02:29.505Z,100.00
2022-08-03T21:05:03.051Z,100.00
2022-08-03T21:07:45.905Z,100.00
2022-08-03T21:10:30.403Z,100.00
2022-08-03T21:12:57.499Z,90.39
2022-08-03T21:13:08.908Z,100.00
2022-08-03T21:13:12.468Z,100.00
2022-08-03T21:13:16.872Z,100.00
2022-08-03T21:16:11.284Z,100.00
2022-08-03T21:18:50.599Z,100.00
2022-08-03T21:21:21.512Z,100.00
2022-08-03T21:23:53.052Z,100.00
2022-08-03T21:26:25.723Z,100.00
2022-08-03T21:28:56.608Z,100.00
2022-08-03T21:31:27.020Z,100.00
2022-08-03T21:33:58.522Z,100.00
2022-08-03T21:36:28.770Z,100.00
2022-08-03T21:38:58.655Z,100.00
2022-08-03T21:41:30.061Z,100.00
2022-08-03T21:43:59.579Z,100.00
2022-08-03T21:46:35.787Z,100.00
2022-08-03T21:50:04.559Z,100.00
2022-08-03T21:51:59.404Z,100.00
2022-08-03T21:54:34.814Z,100.00
2022-08-03T21:57:06.033Z,100.00
2022-08-03T21:59:38.253Z,100.00
2022-08-03T22:02:15.598Z,100.00
2022-08-03T22:04:56.303Z,100.00
2022-08-03T22:07:27.251Z,100.00
2022-08-03T22:09:56.346Z,100.00
2022-08-03T22:12:26.812Z,100.00
2022-08-03T22:15:00.362Z,100.00
2022-08-03T22:17:54.527Z,100.00
2022-08-03T22:20:23.501Z,100.00
2022-08-03T22:22:56.655Z,100.00
2022-08-03T22:25:29.819Z,100.00
2022-08-03T22:28:00.826Z,100.00
2022-08-03T22:30:29.095Z,100.00
2022-08-03T22:32:58.954Z,100.00
2022-08-03T22:35:28.456Z,100.00
2022-08-03T22:37:58.643Z,100.00
2022-08-03T22:40:28.044Z,100.00
2022-08-03T22:42:57.135Z,100.00
2022-08-03T22:46:06.059Z,100.00
2022-08-03T22:48:14.519Z,100.00
2022-08-03T22:50:44.623Z,100.00
2022-08-03T22:53:17.922Z,100.00
2022-08-03T22:55:48.985Z,100.00
2022-08-03T22:58:17.940Z,100.00
2022-08-03T23:00:53.859Z,100.00
2022-08-03T23:03:58.889Z,100.00
2022-08-03T23:06:19.161Z,100.00
2022-08-03T23:08:47.840Z,100.00
2022-08-03T23:11:18.749Z,100.00
2022-08-03T23:13:52.593Z,100.00
2022-08-03T23:16:27.956Z,100.00
2022-08-03T23:19:16.359Z,100.00
2022-08-03T23:22:00.088Z,100.00
2022-08-03T23:24:30.453Z,100.00
2022-08-03T23:26:59.411Z,100.00
2022-08-03T23:29:30.650Z,100.00
2022-08-03T23:31:59.660Z,100.00
2022-08-03T23:34:49.813Z,100.00
2022-08-03T23:37:19.518Z,100.00
2022-08-03T23:39:49.349Z,100.00
2022-08-03T23:42:19.747Z,100.00
2022-08-03T23:44:55.788Z,100.00
2022-08-03T23:47:46.615Z,100.00
2022-08-03T23:50:14.723Z,100.00
2022-08-03T23:53:33.732Z,100.00
2022-08-03T23:56:32.356Z,100.00
2022-08-03T23:59:14.622Z,100.00
